47M weather

Thornton Airport
Brownsville, Tennessee, United States

Public forecast

Using degrees Fahrenheit for public forecast. Weather courtesy of forecast.io.

METAR (pilot weather report)

Closest report is McKellar-Sipes Regional Airport, 15.0 nm (27.8 km) ESE. Retrieved 2019/06/27 04:53 UTC (49 minutes ago):

KMKL 270453Z AUTO 32009KT 10SM CLR 21/19 A3021 RMK AO2 SLP224 T02110194

TAF (pilot weather forecast)

Forecast is more than 12 hours old.

Closest forecast is McKellar-Sipes Regional Airport, 15.0 nm (27.8 km) ESE. Retrieved 2019/06/26 00:42 UTC (1 day ago):

TAF KMKL 262340Z 2700/2724 22006KT P6SM VCTS BKN050CB BKN200 FM270200 23003KT P6SM VCSH SCT050 BKN150 TEMPO 2706/2708 5SM SHRA FM271400 24004KT P6SM SCT035 BKN150 FM271800 25005KT P6SM VCTS SCT045CB BKN060